createdAt,value
2018-02-19T00:00:02.903Z,4.00
2018-02-19T00:01:02.875Z,4.00
2018-02-19T00:02:02.850Z,4.00
2018-02-19T00:03:02.828Z,4.00
2018-02-19T00:04:02.803Z,4.00
2018-02-19T00:05:02.779Z,4.00
2018-02-19T00:06:02.751Z,4.00
2018-02-19T00:07:02.749Z,4.00
2018-02-19T00:08:02.703Z,4.00
2018-02-19T00:09:02.677Z,4.00
2018-02-19T00:10:02.661Z,4.00
2018-02-19T00:11:02.639Z,4.00
2018-02-19T00:12:02.616Z,4.00
2018-02-19T00:13:02.749Z,4.00
2018-02-19T00:14:02.559Z,4.00
2018-02-19T00:15:02.531Z,4.00
2018-02-19T00:16:02.512Z,4.00
2018-02-19T00:17:02.480Z,4.00
2018-02-19T00:18:02.455Z,4.00
2018-02-19T00:19:02.430Z,4.00
2018-02-19T00:20:02.408Z,4.00
2018-02-19T00:21:02.397Z,4.00
2018-02-19T00:22:02.369Z,4.00
2018-02-19T00:23:02.338Z,4.00
2018-02-19T00:24:02.306Z,4.00
2018-02-19T00:25:02.289Z,4.00
2018-02-19T00:26:02.289Z,4.00
2018-02-19T00:27:02.234Z,4.00
2018-02-19T00:28:02.207Z,4.00
2018-02-19T00:29:02.196Z,4.00
2018-02-19T00:30:02.156Z,4.00
2018-02-19T00:31:02.133Z,4.00
2018-02-19T00:32:02.130Z,4.00
2018-02-19T00:33:02.083Z,4.00
2018-02-19T00:34:02.064Z,4.00
2018-02-19T00:35:02.034Z,4.00
2018-02-19T00:36:02.013Z,4.00
2018-02-19T00:37:01.986Z,4.00
2018-02-19T00:38:01.968Z,4.00
2018-02-19T00:39:01.946Z,4.00
2018-02-19T00:40:01.914Z,4.00
2018-02-19T00:41:01.889Z,4.00
2018-02-19T00:42:01.876Z,4.00
2018-02-19T00:43:01.838Z,4.00
2018-02-19T00:44:01.812Z,4.00
2018-02-19T00:45:01.796Z,4.00
2018-02-19T00:46:01.764Z,4.00
2018-02-19T00:47:01.751Z,4.00
2018-02-19T00:48:01.715Z,4.00
2018-02-19T00:49:01.689Z,4.00
2018-02-19T00:50:01.665Z,4.00
2018-02-19T00:51:01.758Z,4.00
2018-02-19T00:52:01.614Z,4.00
2018-02-19T00:53:01.591Z,4.00
2018-02-19T00:54:01.567Z,4.00
2018-02-19T00:55:01.540Z,4.00
2018-02-19T00:56:01.516Z,4.00
2018-02-19T00:57:01.499Z,4.00
2018-02-19T00:58:01.465Z,4.00
2018-02-19T00:59:01.440Z,4.00
2018-02-19T01:00:01.425Z,4.00
2018-02-19T01:01:01.395Z,4.00
2018-02-19T01:02:01.519Z,4.00
2018-02-19T01:03:01.342Z,4.00
2018-02-19T01:04:01.319Z,4.00
2018-02-19T01:05:01.321Z,4.00
2018-02-19T01:06:01.271Z,4.00
2018-02-19T01:07:01.241Z,4.00
2018-02-19T01:08:01.219Z,4.00
2018-02-19T01:09:01.194Z,4.00
2018-02-19T01:10:01.169Z,4.00
2018-02-19T01:11:01.144Z,4.00
2018-02-19T01:12:01.120Z,4.00
2018-02-19T01:13:01.099Z,4.00
2018-02-19T01:14:01.070Z,4.00
2018-02-19T01:15:01.049Z,4.00
2018-02-19T01:16:01.024Z,4.00
2018-02-19T01:17:00.998Z,4.00
2018-02-19T01:18:01.001Z,4.00
2018-02-19T01:19:00.953Z,4.00
2018-02-19T01:20:00.933Z,4.00
2018-02-19T01:21:00.911Z,4.00
2018-02-19T01:22:00.871Z,4.00
2018-02-19T01:23:00.847Z,4.00
2018-02-19T01:24:00.828Z,4.00
2018-02-19T01:25:00.799Z,4.00
2018-02-19T01:26:00.774Z,4.00
2018-02-19T01:27:00.748Z,4.00
2018-02-19T01:28:00.726Z,4.00
2018-02-19T01:29:00.707Z,4.00
2018-02-19T01:30:00.675Z,4.00
2018-02-19T01:31:00.649Z,4.00
2018-02-19T01:32:00.625Z,4.00
2018-02-19T01:33:00.601Z,4.00
2018-02-19T01:34:00.579Z,4.00
2018-02-19T01:35:00.550Z,4.00
2018-02-19T01:36:00.534Z,4.00
2018-02-19T01:37:00.502Z,4.00
2018-02-19T01:38:00.475Z,4.00
2018-02-19T01:39:00.449Z,4.00
2018-02-19T01:40:00.435Z,4.00
2018-02-19T01:41:00.400Z,4.00
2018-02-19T01:42:00.385Z,4.00
2018-02-19T01:43:00.409Z,4.00
2018-02-19T01:44:00.325Z,4.00
2018-02-19T01:45:00.303Z,4.00
2018-02-19T01:46:00.277Z,4.00
2018-02-19T01:47:00.254Z,4.00
2018-02-19T01:48:00.230Z,4.00
2018-02-19T01:49:00.206Z,4.00
2018-02-19T01:50:00.178Z,4.00
2018-02-19T01:51:00.153Z,4.00
2018-02-19T01:52:00.129Z,4.00
2018-02-19T01:53:00.104Z,4.00
2018-02-19T01:54:00.078Z,4.00
2018-02-19T01:55:00.052Z,4.00
2018-02-19T01:56:00.027Z,4.00
2018-02-19T01:57:00.003Z,4.00
2018-02-19T01:57:59.985Z,4.00
2018-02-19T01:58:59.961Z,4.00
2018-02-19T01:59:59.935Z,4.00
2018-02-19T02:00:59.901Z,4.00
2018-02-19T02:01:59.895Z,4.00
2018-02-19T02:02:59.852Z,4.00
2018-02-19T02:03:59.831Z,4.00
2018-02-19T02:04:59.802Z,4.00
2018-02-19T02:05:59.776Z,4.00
2018-02-19T02:06:59.812Z,4.00
2018-02-19T02:07:59.726Z,4.00
2018-02-19T02:08:59.700Z,4.00
2018-02-19T02:09:59.689Z,4.00
2018-02-19T02:10:59.661Z,4.00
2018-02-19T02:11:59.625Z,4.00
2018-02-19T02:12:59.624Z,4.00
2018-02-19T02:13:59.575Z,4.00
2018-02-19T02:14:59.554Z,4.00
2018-02-19T02:15:59.532Z,4.00
2018-02-19T02:16:59.503Z,4.00
2018-02-19T02:17:59.483Z,4.00
2018-02-19T02:18:59.451Z,4.00
2018-02-19T02:19:59.429Z,4.00
2018-02-19T02:20:59.409Z,4.00
2018-02-19T02:21:59.378Z,4.00
2018-02-19T02:22:59.357Z,4.00
2018-02-19T02:23:59.330Z,4.00
2018-02-19T02:24:59.306Z,4.00
2018-02-19T02:25:59.279Z,4.00
2018-02-19T02:26:59.250Z,4.00
2018-02-19T02:27:59.236Z,4.00
2018-02-19T02:28:59.202Z,4.00
2018-02-19T02:29:59.181Z,4.00
2018-02-19T02:30:59.152Z,4.00
2018-02-19T02:31:59.154Z,4.00
2018-02-19T02:32:59.100Z,4.00
2018-02-19T02:33:59.080Z,4.00
2018-02-19T02:34:59.075Z,4.00
2018-02-19T02:35:59.031Z,4.00
2018-02-19T02:36:59.000Z,4.00
2018-02-19T02:37:59.082Z,4.00
2018-02-19T02:38:58.952Z,4.00
2018-02-19T02:39:58.945Z,4.00
2018-02-19T02:40:58.907Z,4.00
2018-02-19T02:41:58.876Z,4.00
2018-02-19T02:42:58.851Z,4.00
2018-02-19T02:43:58.826Z,4.00
2018-02-19T02:44:58.801Z,4.00
2018-02-19T02:45:58.781Z,4.00
2018-02-19T02:46:58.749Z,4.00
2018-02-19T02:47:58.731Z,4.00
2018-02-19T02:48:58.701Z,4.00
2018-02-19T02:49:58.676Z,4.00
2018-02-19T02:50:58.658Z,4.00
2018-02-19T02:51:58.624Z,4.00
2018-02-19T02:52:58.605Z,4.00
2018-02-19T02:53:58.595Z,4.00
2018-02-19T02:54:58.556Z,4.00
2018-02-19T02:55:58.534Z,4.00
2018-02-19T02:56:58.599Z,4.00
2018-02-19T02:57:58.479Z,4.00
2018-02-19T02:58:58.453Z,4.00
2018-02-19T02:59:58.425Z,4.00
2018-02-19T03:00:58.407Z,4.00
2018-02-19T03:01:58.381Z,4.00
2018-02-19T03:02:58.354Z,4.00
2018-02-19T03:03:58.326Z,4.00
2018-02-19T03:04:58.305Z,4.00
2018-02-19T03:05:58.275Z,4.00
2018-02-19T03:06:58.253Z,4.00
2018-02-19T03:07:58.235Z,4.00
2018-02-19T03:08:58.215Z,4.00
2018-02-19T03:09:58.181Z,4.00
2018-02-19T03:10:58.154Z,4.00
2018-02-19T03:11:58.127Z,4.00
2018-02-19T03:12:58.112Z,4.00
2018-02-19T03:13:58.078Z,4.00
2018-02-19T03:14:58.053Z,4.00
2018-02-19T03:15:58.028Z,4.00
2018-02-19T03:16:58.002Z,4.00
2018-02-19T03:17:57.976Z,4.00
2018-02-19T03:18:57.951Z,4.00
2018-02-19T03:19:57.931Z,4.00
2018-02-19T03:20:57.902Z,4.00
2018-02-19T03:21:57.877Z,4.00
2018-02-19T03:22:57.850Z,4.00
2018-02-19T03:23:57.827Z,4.00
2018-02-19T03:24:57.811Z,4.00
2018-02-19T03:25:57.785Z,4.00
2018-02-19T03:26:57.753Z,4.00
2018-02-19T03:27:57.767Z,4.00
2018-02-19T03:28:57.707Z,4.00
2018-02-19T03:29:57.681Z,4.00
2018-02-19T03:30:57.652Z,4.00
2018-02-19T03:31:57.629Z,4.00
2018-02-19T03:32:57.674Z,4.00
2018-02-19T03:33:57.579Z,4.00
2018-02-19T03:34:57.559Z,4.00
2018-02-19T03:35:57.531Z,4.00
2018-02-19T03:36:57.504Z,4.00
2018-02-19T03:37:57.478Z,4.00
2018-02-19T03:38:57.451Z,4.00
2018-02-19T03:39:57.427Z,4.00
2018-02-19T03:40:57.400Z,4.00
2018-02-19T03:41:57.380Z,4.00
2018-02-19T03:42:57.353Z,4.00
2018-02-19T03:43:57.328Z,4.00
2018-02-19T03:44:57.305Z,4.00
2018-02-19T03:45:57.288Z,4.00
2018-02-19T03:46:57.250Z,4.00
2018-02-19T03:47:57.228Z,4.00
2018-02-19T03:48:57.204Z,4.00
2018-02-19T03:49:57.179Z,4.00
2018-02-19T03:50:57.152Z,4.00
2018-02-19T03:51:57.151Z,4.00
2018-02-19T03:52:57.102Z,4.00
2018-02-19T03:53:57.078Z,4.00
2018-02-19T03:54:57.075Z,4.00
2018-02-19T03:55:57.028Z,4.00
2018-02-19T03:56:57.003Z,4.00
2018-02-19T03:57:56.976Z,4.00
2018-02-19T03:58:56.951Z,4.00
2018-02-19T03:59:57.010Z,4.00
2018-02-19T04:00:56.902Z,4.00
2018-02-19T04:01:56.877Z,4.00
2018-02-19T04:02:56.873Z,4.00
2018-02-19T04:03:56.825Z,4.00
2018-02-19T04:04:56.801Z,4.00
2018-02-19T04:05:56.794Z,4.00
2018-02-19T04:06:56.747Z,4.00
2018-02-19T04:07:56.724Z,4.00
2018-02-19T04:08:56.697Z,4.00
2018-02-19T04:09:56.674Z,4.00
2018-02-19T04:10:56.646Z,4.00
2018-02-19T04:11:56.619Z,4.00
2018-02-19T04:12:56.604Z,4.00
2018-02-19T04:13:56.574Z,4.00
2018-02-19T04:14:56.552Z,4.00
2018-02-19T04:15:56.524Z,4.00
2018-02-19T04:16:56.494Z,4.00
2018-02-19T04:17:56.469Z,4.00
2018-02-19T04:18:56.443Z,4.00
2018-02-19T04:19:56.418Z,4.00
2018-02-19T04:20:56.404Z,4.00
2018-02-19T04:21:56.367Z,4.00
2018-02-19T04:22:56.342Z,4.00
2018-02-19T04:23:56.322Z,4.00
2018-02-19T04:24:56.302Z,4.00
2018-02-19T04:25:56.268Z,4.00
2018-02-19T04:26:56.242Z,4.00
2018-02-19T04:27:56.216Z,4.00
2018-02-19T04:28:56.191Z,4.00
2018-02-19T04:29:56.164Z,4.00
2018-02-19T04:30:56.167Z,4.00
2018-02-19T04:31:56.113Z,4.00
2018-02-19T04:32:56.093Z,4.00
2018-02-19T04:33:56.066Z,4.00
2018-02-19T04:34:56.037Z,4.00
2018-02-19T04:35:56.014Z,4.00
2018-02-19T04:36:55.986Z,4.00
2018-02-19T04:37:55.960Z,4.00
2018-02-19T04:38:55.935Z,4.00
2018-02-19T04:39:55.912Z,4.00
2018-02-19T04:40:55.886Z,4.00
2018-02-19T04:41:55.865Z,4.00
2018-02-19T04:42:55.833Z,4.00
2018-02-19T04:43:55.810Z,4.00
2018-02-19T04:44:55.915Z,4.00
2018-02-19T04:45:55.765Z,4.00
2018-02-19T04:46:55.732Z,4.00
2018-02-19T04:47:55.830Z,4.00
2018-02-19T04:48:55.684Z,4.00
2018-02-19T04:49:55.657Z,4.00
2018-02-19T04:50:55.675Z,4.00
2018-02-19T04:51:55.608Z,4.00
2018-02-19T04:52:55.581Z,4.00
2018-02-19T04:53:55.558Z,4.00
2018-02-19T04:54:55.528Z,4.00
2018-02-19T04:55:55.503Z,4.00
2018-02-19T04:56:55.498Z,4.00
2018-02-19T04:57:55.453Z,4.00
2018-02-19T04:58:55.428Z,4.00
2018-02-19T04:59:55.403Z,4.00
2018-02-19T05:00:55.379Z,4.00
2018-02-19T05:01:55.353Z,4.00
2018-02-19T05:02:55.326Z,4.00
2018-02-19T05:03:55.307Z,4.00
2018-02-19T05:04:55.277Z,4.00
2018-02-19T05:05:55.258Z,4.00
2018-02-19T05:06:55.225Z,4.00
2018-02-19T05:07:55.208Z,4.00
2018-02-19T05:08:55.175Z,4.00
2018-02-19T05:09:55.156Z,4.00
2018-02-19T05:10:55.126Z,4.00
2018-02-19T05:11:55.101Z,4.00
2018-02-19T05:12:55.169Z,4.00
2018-02-19T05:13:55.047Z,4.00
2018-02-19T05:14:55.025Z,4.00
2018-02-19T05:15:55.055Z,4.00
2018-02-19T05:16:54.973Z,4.00
2018-02-19T05:17:54.948Z,4.00
2018-02-19T05:18:54.926Z,4.00
2018-02-19T05:19:54.897Z,4.00
2018-02-19T05:20:54.877Z,4.00
2018-02-19T05:21:54.848Z,4.00
2018-02-19T05:22:54.882Z,4.00
2018-02-19T05:23:54.799Z,4.00
2018-02-19T05:24:54.783Z,4.00
2018-02-19T05:25:54.748Z,4.00
2018-02-19T05:26:54.724Z,4.00
2018-02-19T05:27:54.701Z,4.00
2018-02-19T05:28:54.679Z,4.00
2018-02-19T05:29:54.646Z,4.00
2018-02-19T05:30:54.621Z,4.00
2018-02-19T05:31:54.605Z,4.00
2018-02-19T05:32:54.573Z,4.00
2018-02-19T05:33:54.552Z,4.00
2018-02-19T05:34:54.525Z,4.00
2018-02-19T05:35:54.496Z,4.00
2018-02-19T05:36:54.483Z,4.00
2018-02-19T05:37:54.444Z,4.00
2018-02-19T05:38:54.417Z,4.00
2018-02-19T05:39:54.401Z,4.00
2018-02-19T05:40:54.374Z,4.00
2018-02-19T05:41:54.341Z,4.00
2018-02-19T05:42:54.317Z,4.00
2018-02-19T05:43:54.301Z,4.00
2018-02-19T05:44:54.267Z,4.00
2018-02-19T05:45:54.379Z,4.00
2018-02-19T05:46:54.216Z,4.00
2018-02-19T05:47:54.191Z,4.00
2018-02-19T05:48:54.245Z,4.00
2018-02-19T05:49:54.145Z,4.00
2018-02-19T05:50:54.115Z,4.00
2018-02-19T05:51:54.140Z,4.00
2018-02-19T05:52:54.067Z,4.00
2018-02-19T05:53:54.042Z,4.00
2018-02-19T05:54:54.018Z,4.00
2018-02-19T05:55:53.989Z,4.00
2018-02-19T05:56:53.962Z,4.00
2018-02-19T05:57:53.938Z,4.00
2018-02-19T05:58:53.915Z,4.00
2018-02-19T05:59:53.918Z,4.00
2018-02-19T06:00:53.870Z,4.00
2018-02-19T06:01:53.853Z,4.00
2018-02-19T06:02:53.812Z,4.00
2018-02-19T06:03:53.787Z,4.00
2018-02-19T06:04:53.760Z,4.00
2018-02-19T06:05:53.736Z,4.00
2018-02-19T06:06:53.714Z,4.00
2018-02-19T06:07:53.692Z,4.00
2018-02-19T06:08:53.682Z,4.00
2018-02-19T06:09:53.633Z,8.00
2018-02-19T06:10:53.610Z,4.00
2018-02-19T06:11:53.590Z,8.00
2018-02-19T06:12:53.558Z,8.00
2018-02-19T06:13:53.539Z,8.00
2018-02-19T06:14:53.508Z,8.00
2018-02-19T06:15:53.487Z,12.00
2018-02-19T06:16:53.457Z,12.00
2018-02-19T06:17:53.433Z,16.00
2018-02-19T06:18:53.422Z,16.00
2018-02-19T06:19:53.382Z,20.00
2018-02-19T06:20:53.356Z,20.00
2018-02-19T06:21:53.333Z,24.00
2018-02-19T06:22:53.307Z,28.00
2018-02-19T06:23:53.278Z,32.00
2018-02-19T06:24:53.254Z,36.00
2018-02-19T06:25:53.230Z,48.00
2018-02-19T06:26:53.203Z,52.00
2018-02-19T06:27:53.177Z,64.00
2018-02-19T06:28:53.156Z,72.00
2018-02-19T06:29:53.124Z,80.00
2018-02-19T06:30:53.147Z,96.00
2018-02-19T06:31:53.077Z,104.00
2018-02-19T06:32:53.056Z,120.00
2018-02-19T06:33:53.134Z,140.00
2018-02-19T06:34:53.000Z,160.00
2018-02-19T06:35:53.029Z,176.00
2018-02-19T06:36:52.956Z,196.00
2018-02-19T06:37:52.935Z,216.00
2018-02-19T06:38:52.900Z,240.00
2018-02-19T06:39:52.874Z,268.00
2018-02-19T06:40:52.863Z,292.00
2018-02-19T06:41:52.823Z,324.00
2018-02-19T06:42:52.800Z,356.00
2018-02-19T06:43:52.773Z,384.00
2018-02-19T06:44:52.748Z,420.00
2018-02-19T06:45:52.724Z,448.00
2018-02-19T06:46:52.707Z,480.00
2018-02-19T06:47:52.676Z,508.00
2018-02-19T06:48:52.645Z,544.00
2018-02-19T06:49:52.631Z,588.00
2018-02-19T06:50:52.595Z,628.00
2018-02-19T06:51:52.590Z,664.00
2018-02-19T06:52:52.545Z,700.00
2018-02-19T06:53:52.518Z,748.00
2018-02-19T06:54:52.492Z,792.00
2018-02-19T06:55:52.467Z,844.00
2018-02-19T06:56:52.443Z,896.00
2018-02-19T06:57:52.414Z,952.00
2018-02-19T06:58:52.392Z,1012.00
2018-02-19T06:59:52.369Z,1076.00
2018-02-19T07:00:52.343Z,1140.00
2018-02-19T07:01:52.316Z,1200.00
2018-02-19T07:02:52.290Z,1248.00
2018-02-19T07:03:52.264Z,1284.00
2018-02-19T07:04:52.241Z,1304.00
2018-02-19T07:05:52.331Z,1320.00
2018-02-19T07:06:52.196Z,1332.00
2018-02-19T07:07:52.164Z,1332.00
2018-02-19T07:08:52.171Z,1344.00
2018-02-19T07:09:52.115Z,1356.00
2018-02-19T07:10:52.113Z,1368.00
2018-02-19T07:11:52.073Z,1384.00
2018-02-19T07:12:52.038Z,1404.00
2018-02-19T07:13:52.010Z,1428.00
2018-02-19T07:14:51.985Z,1468.00
2018-02-19T07:15:51.954Z,1516.00
2018-02-19T07:16:51.945Z,1588.00
2018-02-19T07:17:51.904Z,1664.00
2018-02-19T07:18:51.879Z,1736.00
2018-02-19T07:19:51.959Z,1788.00
2018-02-19T07:20:51.828Z,1832.00
2018-02-19T07:21:51.804Z,1864.00
2018-02-19T07:22:51.786Z,1888.00
2018-02-19T07:23:51.751Z,1900.00
2018-02-19T07:24:51.728Z,1908.00
2018-02-19T07:25:51.698Z,1924.00
2018-02-19T07:26:51.673Z,1976.00
2018-02-19T07:27:51.658Z,2060.00
2018-02-19T07:28:51.630Z,2168.00
2018-02-19T07:29:51.607Z,2296.00
2018-02-19T07:30:51.570Z,2428.00
2018-02-19T07:31:51.555Z,2536.00
2018-02-19T07:32:51.517Z,2636.00
2018-02-19T07:33:51.493Z,2744.00
2018-02-19T07:34:51.475Z,2860.00
2018-02-19T07:35:51.447Z,2984.00
2018-02-19T07:36:51.416Z,3132.00
2018-02-19T07:37:51.389Z,3264.00
2018-02-19T07:38:51.371Z,3396.00
2018-02-19T07:39:51.339Z,3516.00
2018-02-19T07:40:51.326Z,3704.00
2018-02-19T07:41:51.288Z,3912.00
2018-02-19T07:42:51.266Z,4112.00
2018-02-19T07:43:51.238Z,4276.00
2018-02-19T07:44:51.213Z,4396.00
2018-02-19T07:45:51.186Z,4480.00
2018-02-19T07:46:51.160Z,4548.00
2018-02-19T07:47:51.139Z,4632.00
2018-02-19T07:48:51.111Z,4740.00
2018-02-19T07:49:51.085Z,4864.00
2018-02-19T07:50:51.223Z,4956.00
2018-02-19T07:51:51.047Z,5004.00
2018-02-19T07:52:51.015Z,5032.00
2018-02-19T07:53:51.004Z,5044.00
2018-02-19T07:54:50.960Z,5076.00
2018-02-19T07:55:50.935Z,5196.00
2018-02-19T07:56:50.910Z,5340.00
2018-02-19T07:57:50.885Z,5512.00
2018-02-19T07:58:50.859Z,5732.00
2018-02-19T07:59:50.837Z,5996.00
2018-02-19T08:00:50.810Z,6228.00
2018-02-19T08:01:50.792Z,6500.00
2018-02-19T08:02:50.758Z,6800.00
2018-02-19T08:03:50.736Z,7140.00
2018-02-19T08:04:50.738Z,7392.00
2018-02-19T08:05:50.686Z,7464.00
2018-02-19T08:06:50.667Z,7388.00
2018-02-19T08:07:50.693Z,7252.00
2018-02-19T08:08:50.620Z,7140.00
2018-02-19T08:09:50.593Z,7108.00
2018-02-19T08:10:50.562Z,7108.00
2018-02-19T08:11:50.546Z,7128.00
2018-02-19T08:12:50.511Z,7044.00
2018-02-19T08:13:50.487Z,7008.00
2018-02-19T08:14:50.462Z,6948.00
2018-02-19T08:15:50.441Z,6900.00
2018-02-19T08:16:50.422Z,6892.00
2018-02-19T08:17:50.391Z,6920.00
2018-02-19T08:18:50.372Z,7016.00
2018-02-19T08:19:50.341Z,7116.00
2018-02-19T08:20:50.317Z,7184.00
2018-02-19T08:21:50.290Z,7244.00
2018-02-19T08:22:50.266Z,7308.00
2018-02-19T08:23:50.241Z,7360.00
2018-02-19T08:24:50.221Z,7412.00
2018-02-19T08:25:50.194Z,7548.00
2018-02-19T08:26:50.185Z,7944.00
2018-02-19T08:27:50.146Z,8476.00
2018-02-19T08:28:50.123Z,8948.00
2018-02-19T08:29:50.111Z,9232.00
2018-02-19T08:30:50.079Z,9552.00
2018-02-19T08:31:50.049Z,9500.00
2018-02-19T08:32:50.025Z,9572.00
2018-02-19T08:33:49.999Z,9556.00
2018-02-19T08:34:49.974Z,9528.00
2018-02-19T08:35:49.958Z,9260.00
2018-02-19T08:36:49.933Z,9232.00
2018-02-19T08:37:49.933Z,9600.00
2018-02-19T08:38:49.881Z,9844.00
2018-02-19T08:39:49.861Z,10000.00
2018-02-19T08:40:49.830Z,10112.00
2018-02-19T08:41:49.811Z,9492.00
2018-02-19T08:42:49.778Z,9280.00
2018-02-19T08:43:49.757Z,9080.00
2018-02-19T08:44:49.729Z,8952.00
2018-02-19T08:45:49.703Z,8728.00
2018-02-19T08:46:49.697Z,8748.00
2018-02-19T08:47:49.660Z,8972.00
2018-02-19T08:48:49.631Z,9392.00
2018-02-19T08:49:49.610Z,9352.00
2018-02-19T08:50:49.583Z,9376.00
2018-02-19T08:51:49.558Z,9388.00
2018-02-19T08:52:49.537Z,9604.00
2018-02-19T08:53:49.510Z,9996.00
2018-02-19T08:54:49.488Z,10724.00
2018-02-19T08:55:49.462Z,11480.00
2018-02-19T08:56:49.437Z,11992.00
2018-02-19T08:57:49.411Z,12092.00
2018-02-19T08:58:49.388Z,12664.00
2018-02-19T08:59:49.383Z,12380.00
2018-02-19T09:00:49.339Z,12212.00
2018-02-19T09:01:49.317Z,11632.00
2018-02-19T09:02:49.300Z,11184.00
2018-02-19T09:03:49.268Z,10984.00
2018-02-19T09:04:49.245Z,10576.00
2018-02-19T09:05:49.220Z,10096.00
2018-02-19T09:06:49.197Z,10004.00
2018-02-19T09:07:49.171Z,9776.00
2018-02-19T09:08:49.149Z,9644.00
2018-02-19T09:09:49.125Z,9632.00
2018-02-19T09:10:49.106Z,9664.00
2018-02-19T09:11:49.075Z,9340.00
2018-02-19T09:12:49.054Z,9428.00
2018-02-19T09:13:49.028Z,9580.00
2018-02-19T09:14:49.005Z,9960.00
2018-02-19T09:15:48.988Z,10172.00
2018-02-19T09:16:48.957Z,10392.00
2018-02-19T09:17:48.943Z,11124.00
2018-02-19T09:18:48.999Z,10840.00
2018-02-19T09:19:48.887Z,11028.00
2018-02-19T09:20:48.864Z,11004.00
2018-02-19T09:21:48.932Z,10896.00
2018-02-19T09:22:48.821Z,12076.00
2018-02-19T09:23:48.793Z,12896.00
2018-02-19T09:24:48.764Z,25600.00
2018-02-19T09:25:48.744Z,11388.00
2018-02-19T09:26:48.725Z,21088.00
2018-02-19T09:27:48.704Z,18784.00
2018-02-19T09:28:48.672Z,11776.00
2018-02-19T09:29:48.651Z,16736.00
2018-02-19T09:30:48.628Z,17728.00
2018-02-19T09:31:48.605Z,12508.00
2018-02-19T09:32:48.578Z,18912.00
2018-02-19T09:33:48.554Z,22464.00
2018-02-19T09:34:48.599Z,20864.00
2018-02-19T09:35:48.520Z,22784.00
2018-02-19T09:36:48.492Z,17088.00
2018-02-19T09:37:48.480Z,26784.00
2018-02-19T09:38:48.440Z,26208.00
2018-02-19T09:39:48.421Z,25792.00
2018-02-19T09:40:48.397Z,17056.00
2018-02-19T09:41:48.376Z,25312.00
2018-02-19T09:42:48.354Z,25792.00
2018-02-19T09:43:48.332Z,21248.00
2018-02-19T09:44:48.312Z,18496.00
2018-02-19T09:45:48.294Z,16800.00
2018-02-19T09:46:48.271Z,15236.00
2018-02-19T09:47:48.305Z,14916.00
2018-02-19T09:48:48.225Z,15776.00
2018-02-19T09:49:48.203Z,14992.00
2018-02-19T09:50:48.181Z,16800.00
2018-02-19T09:51:48.165Z,15916.00
2018-02-19T09:52:48.147Z,25984.00
2018-02-19T09:53:48.128Z,27136.00
2018-02-19T09:54:48.094Z,19872.00
2018-02-19T09:55:48.082Z,25216.00
2018-02-19T09:56:48.055Z,23488.00
2018-02-19T09:57:48.033Z,26016.00
2018-02-19T09:58:48.018Z,17216.00
2018-02-19T09:59:48.009Z,16704.00
2018-02-19T10:00:47.969Z,18720.00
2018-02-19T10:01:48.076Z,23712.00
2018-02-19T10:02:47.927Z,17920.00
2018-02-19T10:03:47.908Z,24000.00
2018-02-19T10:04:47.889Z,20320.00
2018-02-19T10:05:47.868Z,29216.00
2018-02-19T10:06:47.843Z,32128.00
2018-02-19T10:07:47.829Z,27072.00
2018-02-19T10:08:47.804Z,19168.00
2018-02-19T10:09:47.786Z,20832.00
2018-02-19T10:10:47.762Z,21184.00
2018-02-19T10:11:47.754Z,21760.00
2018-02-19T10:12:47.729Z,22880.00
2018-02-19T10:13:47.703Z,18144.00
2018-02-19T10:14:47.697Z,18240.00
2018-02-19T10:15:47.670Z,24192.00
2018-02-19T10:16:47.645Z,21472.00
2018-02-19T10:17:47.626Z,21728.00
2018-02-19T10:18:47.612Z,18912.00
2018-02-19T10:19:47.586Z,19392.00
2018-02-19T10:20:47.730Z,20736.00
2018-02-19T10:21:47.546Z,20032.00
2018-02-19T10:22:47.527Z,17472.00
2018-02-19T10:23:47.521Z,17472.00
2018-02-19T10:24:47.491Z,18304.00
2018-02-19T10:25:47.469Z,20544.00
2018-02-19T10:26:47.452Z,22400.00
2018-02-19T10:27:47.429Z,20352.00
2018-02-19T10:28:47.408Z,20032.00
2018-02-19T10:29:47.390Z,25664.00
2018-02-19T10:30:47.367Z,22816.00
2018-02-19T10:31:47.352Z,18688.00
2018-02-19T10:32:47.331Z,21056.00
2018-02-19T10:33:47.310Z,25952.00
2018-02-19T10:34:47.291Z,18048.00
2018-02-19T10:35:47.270Z,18080.00
2018-02-19T10:36:47.259Z,18848.00
2018-02-19T10:37:47.233Z,19232.00
2018-02-19T10:38:47.210Z,26304.00
2018-02-19T10:39:47.194Z,18304.00
2018-02-19T10:40:47.175Z,18208.00
2018-02-19T10:41:47.155Z,19456.00
2018-02-19T10:42:47.162Z,19840.00
2018-02-19T10:43:47.120Z,25600.00
2018-02-19T10:44:47.144Z,21280.00
2018-02-19T10:45:47.079Z,18144.00
2018-02-19T10:46:47.057Z,23136.00
2018-02-19T10:47:47.037Z,22624.00
2018-02-19T10:48:47.028Z,17792.00
2018-02-19T10:49:46.999Z,18240.00
2018-02-19T10:50:46.982Z,22720.00
2018-02-19T10:51:46.962Z,19008.00
2018-02-19T10:52:46.961Z,24128.00
2018-02-19T10:53:46.923Z,20832.00
2018-02-19T10:54:46.907Z,16704.00
2018-02-19T10:55:46.884Z,16992.00
2018-02-19T10:56:46.861Z,17248.00
2018-02-19T10:57:46.865Z,16992.00
2018-02-19T10:58:46.821Z,15940.00
2018-02-19T10:59:46.800Z,16352.00
2018-02-19T11:00:46.785Z,16088.00
2018-02-19T11:01:46.766Z,16088.00
2018-02-19T11:02:46.742Z,16032.00
2018-02-19T11:03:46.721Z,15724.00
2018-02-19T11:04:46.705Z,15436.00
2018-02-19T11:05:46.682Z,15416.00
2018-02-19T11:06:46.818Z,15304.00
2018-02-19T11:07:46.643Z,15252.00
2018-02-19T11:08:46.631Z,15644.00
2018-02-19T11:09:46.763Z,15864.00
2018-02-19T11:10:46.584Z,15532.00
2018-02-19T11:11:46.569Z,15692.00
2018-02-19T11:12:46.558Z,16180.00
2018-02-19T11:13:46.532Z,16832.00
2018-02-19T11:14:46.505Z,16480.00
2018-02-19T11:15:46.489Z,16012.00
2018-02-19T11:16:46.469Z,15356.00
2018-02-19T11:17:46.455Z,16124.00
2018-02-19T11:18:46.434Z,15540.00
2018-02-19T11:19:46.408Z,15472.00
2018-02-19T11:20:46.388Z,15220.00
2018-02-19T11:21:46.368Z,15120.00
2018-02-19T11:22:46.352Z,15040.00
2018-02-19T11:23:46.331Z,14920.00
2018-02-19T11:24:46.313Z,14676.00
2018-02-19T11:25:46.293Z,14640.00
2018-02-19T11:26:46.271Z,14940.00
2018-02-19T11:27:46.253Z,14804.00
2018-02-19T11:28:46.237Z,14916.00
2018-02-19T11:29:46.228Z,14828.00
2018-02-19T11:30:46.197Z,14612.00
2018-02-19T11:31:46.186Z,14656.00
2018-02-19T11:32:46.159Z,14568.00
2018-02-19T11:33:46.137Z,14576.00
2018-02-19T11:34:46.123Z,14220.00
2018-02-19T11:35:46.191Z,14536.00
2018-02-19T11:36:46.080Z,14112.00
2018-02-19T11:37:46.060Z,14072.00
2018-02-19T11:38:55.315Z,14440.00
2018-02-19T11:39:46.021Z,14384.00
2018-02-19T11:40:46.000Z,14120.00
2018-02-19T11:41:45.981Z,14084.00
2018-02-19T11:42:45.962Z,14280.00
2018-02-19T11:43:45.940Z,14540.00
2018-02-19T11:44:45.922Z,14804.00
2018-02-19T11:45:45.900Z,14372.00
2018-02-19T11:46:45.922Z,13844.00
2018-02-19T11:47:45.878Z,14012.00
2018-02-19T11:48:45.849Z,14036.00
2018-02-19T11:49:45.828Z,13924.00
2018-02-19T11:50:45.809Z,13996.00
2018-02-19T11:51:45.784Z,13956.00
2018-02-19T11:52:45.769Z,14508.00
2018-02-19T11:53:45.747Z,14620.00
2018-02-19T11:54:45.806Z,14824.00
2018-02-19T11:55:45.705Z,15688.00
2018-02-19T11:56:45.689Z,15092.00
2018-02-19T11:57:45.674Z,15572.00
2018-02-19T11:58:45.644Z,14956.00
2018-02-19T11:59:45.634Z,15076.00
2018-02-19T12:00:45.602Z,15880.00
2018-02-19T12:01:45.590Z,14732.00
2018-02-19T12:02:45.567Z,15508.00
2018-02-19T12:03:45.543Z,14708.00
2018-02-19T12:04:45.523Z,14360.00
2018-02-19T12:05:45.515Z,14276.00
2018-02-19T12:06:45.481Z,14388.00
2018-02-19T12:07:45.462Z,13944.00
2018-02-19T12:08:45.481Z,13712.00
2018-02-19T12:09:45.422Z,13332.00
2018-02-19T12:10:45.403Z,13448.00
2018-02-19T12:11:45.381Z,13396.00
2018-02-19T12:12:45.362Z,12568.00
2018-02-19T12:13:45.341Z,12552.00
2018-02-19T12:14:45.343Z,13688.00
2018-02-19T12:15:45.317Z,12884.00
2018-02-19T12:16:45.282Z,12764.00
2018-02-19T12:17:45.263Z,13248.00
2018-02-19T12:18:45.337Z,13468.00
2018-02-19T12:19:45.228Z,14328.00
2018-02-19T12:20:45.204Z,12636.00
2018-02-19T12:21:45.285Z,11660.00
2018-02-19T12:22:45.166Z,11228.00
2018-02-19T12:23:45.149Z,11004.00
2018-02-19T12:24:45.136Z,11064.00
2018-02-19T12:25:45.107Z,11168.00
2018-02-19T12:26:45.088Z,11164.00
2018-02-19T12:27:45.075Z,11040.00
2018-02-19T12:28:45.051Z,11056.00
2018-02-19T12:29:45.024Z,11120.00
2018-02-19T12:30:45.012Z,11228.00
2018-02-19T12:31:44.992Z,11660.00
2018-02-19T12:32:44.981Z,11596.00
2018-02-19T12:33:44.949Z,11648.00
2018-02-19T12:34:44.930Z,11768.00